Pecos, TX

11:03 AM CDT on April 30, 2017 (GMT -0500)
Pecos Municipal

Weather History for KPEQ - November, 2010

Change the Weather History Date:

Wednesday, November 17, 2010

  Actual Average Record
Temperature  
Mean Temperature 60 °F -  
Max Temperature 70 °F 67 °F 87 °F (1942)
Min Temperature 49 °F 35 °F 18 °F (2014)
Degree Days  
Heating Degree Days 5    
Growing Degree Days 10 (Base 50)    
Moisture  
Dew Point 22 °F    
Average Humidity 25    
Maximum Humidity 35    
Minimum Humidity 13    
Precipitation  
Precipitation 0.00 in - - ()
Sea Level Pressure  
Sea Level Pressure 30.09 in    
Wind  
Wind Speed 10 mph (NW)    
Max Wind Speed 24 mph    
Max Gust Speed 29 mph    
Visibility 10 miles    
Events      
Averages and records for this station are not official NWS values.
T = Trace of Precipitation, MM = Missing Value Source: NWS Daily Summary

Daily Weather History Graph

Daily Weather History Graph

Search for Another Location

Airport or City:

Trip Planner

Search our weather history database for the weather conditions in past years. The results will help you decide how hot, cold, wet, or windy it might be!

Date:

Astronomy

Nov. 17, 2010 Rise Set
Actual Time 7:23 AM CST 5:54 PM CST
Civil Twilight 6:57 AM CST 6:20 PM CST
Nautical Twilight 6:28 AM CST 6:49 PM CST
Astronomical Twilight 5:59 AM CST 7:18 PM CST
Moon 3:17 PM CST (11/17) 3:36 AM CST (11/17)
Length of Visible Light 11h 22m
Length of Day
10h 31m
Waxing Gibbous, 85% of the Moon is Illuminated
Nov 17
Waxing Gibbous
Nov 21
Full
Nov 28
Last Quarter
Dec 5
New
Dec 13
First Quarter

Hourly Weather History & Observations

Time (CST) Temp. Windchill Dew Point Humidity Pressure Visibility Wind Dir Wind Speed Gust Speed Precip Events Conditions
12:05 AM 50.4 °F - 19.6 °F 30% 29.83 in 10.0 mi SSW 9.2 mph - N/A   Clear
12:25 AM 52.7 °F - 19.9 °F 28% 29.83 in 10.0 mi SSW 9.2 mph - N/A   Clear
12:45 AM 54.5 °F - 20.3 °F 26% 29.83 in 10.0 mi SSW 9.2 mph - N/A   Clear
1:05 AM 54.5 °F - 20.8 °F 27% 29.84 in 10.0 mi SW 10.4 mph - N/A   Clear
1:25 AM 55.6 °F - 21.0 °F 26% 29.84 in 10.0 mi SW 9.2 mph - N/A   Clear
1:45 AM 54.3 °F - 21.0 °F 27% 29.84 in 10.0 mi SW 10.4 mph - N/A   Clear
2:25 AM 52.2 °F - 21.2 °F 30% 29.86 in 10.0 mi WSW 4.6 mph - N/A   Clear
2:45 AM 51.4 °F - 20.8 °F 30% 29.86 in 10.0 mi SSW 5.8 mph - N/A   Clear
3:05 AM 51.1 °F - 21.6 °F 31% 29.87 in 10.0 mi SSW 4.6 mph - N/A   Clear
3:25 AM 54.5 °F - 22.6 °F 29% 29.88 in 10.0 mi Calm Calm - N/A   Clear
3:45 AM 52.9 °F - 23.4 °F 32% 29.88 in 10.0 mi Calm Calm - N/A   Clear
4:05 AM 53.1 °F - 23.5 °F 32% 29.89 in 10.0 mi WSW 5.8 mph - N/A   Clear
4:25 AM 50.4 °F - 23.4 °F 35% 29.89 in 10.0 mi SW 8.1 mph - N/A   Clear
4:45 AM 50.2 °F - 23.5 °F 35% 29.90 in 10.0 mi SW 8.1 mph - N/A   Clear
5:05 AM 52.5 °F - 24.8 °F 34% 29.91 in 10.0 mi WSW 9.2 mph - N/A   Clear
5:25 AM 57.0 °F - 26.2 °F 31% 29.91 in 10.0 mi West 11.5 mph - N/A   Clear
5:45 AM 57.2 °F - 26.6 °F 31% 29.91 in 10.0 mi West 13.8 mph - N/A   Clear
6:05 AM 57.6 °F - 26.6 °F 31% 29.93 in 10.0 mi West 13.8 mph - N/A   Clear
6:25 AM 56.3 °F - 26.6 °F 32% 29.95 in 10.0 mi West 11.5 mph - N/A   Clear
6:45 AM 56.1 °F - 27.0 °F 33% 29.96 in 10.0 mi West 12.7 mph - N/A   Clear
7:05 AM 57.4 °F - 27.0 °F 31% 29.97 in 10.0 mi WSW 12.7 mph - N/A   Clear
7:25 AM 58.3 °F - 27.3 °F 31% 29.98 in 10.0 mi WSW 10.4 mph 19.6 mph N/A   Clear
7:45 AM 56.3 °F - 26.2 °F 32% 30.00 in 10.0 mi WSW 6.9 mph - N/A   Clear
8:05 AM 58.3 °F - 27.3 °F 31% 30.03 in 10.0 mi West 8.1 mph - N/A   Clear
8:25 AM 55.6 °F - 26.4 °F 33% 30.07 in 10.0 mi North 10.4 mph 18.4 mph N/A   Clear
8:45 AM 54.7 °F - 26.8 °F 34% 30.09 in 10.0 mi NW 5.8 mph - N/A   Clear
9:05 AM 57.7 °F - 28.4 °F 33% 30.09 in 10.0 mi West 8.1 mph - N/A   Clear
9:45 AM 64.2 °F - 27.7 °F 25% 30.13 in 10.0 mi NW 13.8 mph - N/A   Clear
10:25 AM 66.2 °F - 23.0 °F 19% 30.16 in 10.0 mi NNW 23.0 mph 27.6 mph N/A   Clear
10:45 AM 66.7 °F - 18.9 °F 16% 30.17 in 10.0 mi NW 24.2 mph 28.8 mph N/A   Clear
11:05 AM 68.0 °F - 18.1 °F 15% 30.18 in 10.0 mi North 23.0 mph 28.8 mph N/A   Clear
11:25 AM 68.5 °F - 18.5 °F 15% 30.18 in 10.0 mi North 17.3 mph 28.8 mph N/A   Clear
11:45 AM 68.9 °F - 19.4 °F 15% 30.19 in 10.0 mi NNW 19.6 mph 23.0 mph N/A   Clear
12:05 PM 68.9 °F - 20.1 °F 16% 30.18 in 10.0 mi North 19.6 mph 24.2 mph N/A   Clear
12:25 PM 69.3 °F - 21.9 °F 17% 30.19 in 10.0 mi NNE 15.0 mph - N/A   Clear
12:45 PM 69.1 °F - 22.1 °F 17% 30.19 in 10.0 mi North 15.0 mph 20.7 mph N/A   Clear
1:05 PM 69.6 °F - 21.4 °F 16% 30.19 in 10.0 mi NNW 15.0 mph 21.9 mph N/A   Clear
1:25 PM 69.4 °F - 19.9 °F 15% 30.19 in 10.0 mi North 10.4 mph 23.0 mph N/A   Clear
1:45 PM 69.8 °F - 18.9 °F 14% 30.18 in 10.0 mi North 15.0 mph 20.7 mph N/A   Clear
2:05 PM 69.8 °F - 19.2 °F 15% 30.18 in 10.0 mi North 10.4 mph 19.6 mph N/A   Clear
2:25 PM 70.2 °F - 18.3 °F 14% 30.19 in 10.0 mi North 13.8 mph - N/A   Clear
2:45 PM 70.7 °F - 18.3 °F 14% 30.19 in 10.0 mi North 15.0 mph 19.6 mph N/A   Clear
3:05 PM 70.0 °F - 17.4 °F 13% 30.19 in 10.0 mi North 15.0 mph 21.9 mph N/A   Clear
3:25 PM 69.8 °F - 16.7 °F 13% 30.20 in 10.0 mi NW 15.0 mph - N/A   Clear
3:45 PM 69.8 °F - 15.8 °F 13% 30.21 in 10.0 mi NNW 11.5 mph 18.4 mph N/A   Clear
4:25 PM 68.9 °F - 15.4 °F 13% 30.22 in 10.0 mi North 11.5 mph - N/A   Clear
4:45 PM 68.2 °F - 16.2 °F 14% 30.23 in 10.0 mi North 12.7 mph - N/A   Clear
5:05 PM 67.5 °F - 16.7 °F 14% 30.24 in 10.0 mi North 12.7 mph - N/A   Clear
5:25 PM 66.2 °F - 18.7 °F 16% 30.25 in 10.0 mi North 13.8 mph - N/A   Clear
5:45 PM 64.0 °F - 20.8 °F 19% 30.26 in 10.0 mi NNE 8.1 mph - N/A   Clear
6:05 PM 62.1 °F - 21.0 °F 21% 30.27 in 10.0 mi NNE 5.8 mph - N/A   Clear
6:25 PM 58.5 °F - 21.2 °F 24% 30.28 in 10.0 mi NNE 5.8 mph - N/A   Clear
6:45 PM 57.0 °F - 22.1 °F 26% 30.29 in 10.0 mi NNE 5.8 mph - N/A   Clear
7:05 PM 55.6 °F - 22.3 °F 27% 30.30 in 10.0 mi NNE 5.8 mph - N/A   Clear
7:25 PM 54.0 °F - 22.1 °F 29% 30.31 in 10.0 mi NE 6.9 mph - N/A   Clear
7:45 PM 52.3 °F - 22.1 °F 31% 30.32 in 10.0 mi NE 5.8 mph - N/A   Clear
8:05 PM 51.3 °F - 22.1 °F 32% 30.33 in 10.0 mi NE 5.8 mph - N/A   Clear
8:25 PM 50.2 °F - 21.9 °F 33% 30.34 in 10.0 mi NE 5.8 mph - N/A   Clear
8:45 PM 49.8 °F - 22.1 °F 34% 30.34 in 10.0 mi NE 6.9 mph - N/A   Clear
9:05 PM 48.6 °F - 22.1 °F 35% 30.36 in 10.0 mi NE 6.9 mph - N/A   Clear
9:45 PM 47.7 °F - 23.4 °F 38% 30.37 in 10.0 mi ENE 8.1 mph - N/A   Clear
10:05 PM 46.8 °F - 24.1 °F 41% 30.38 in 10.0 mi ENE 6.9 mph - N/A   Clear
10:25 PM 45.9 °F 42.3 °F 24.4 °F 43% 30.38 in 10.0 mi ENE 6.9 mph - N/A   Clear
10:45 PM 44.8 °F 41.6 °F 24.6 °F 45% 30.39 in 10.0 mi ENE 5.8 mph - N/A   Clear
11:05 PM 44.2 °F - 24.8 °F 46% 30.40 in 10.0 mi Calm Calm - N/A   Clear
11:25 PM 42.4 °F - 23.4 °F 47% 30.41 in 10.0 mi Calm Calm - N/A   Clear
11:45 PM 39.7 °F - 22.3 °F 50% 30.41 in 10.0 mi Calm Calm - N/A   Clear